createdAt,value
2019-03-31T00:01:55.662Z,27.27
2019-03-31T00:06:59.229Z,25.40
2019-03-31T00:12:03.015Z,26.33
2019-03-31T00:17:06.772Z,28.00
2019-03-31T00:22:10.309Z,33.28
2019-03-31T00:27:13.786Z,24.47
2019-03-31T00:32:17.375Z,26.45
2019-03-31T00:37:20.850Z,27.17
2019-03-31T00:42:24.342Z,24.45
2019-03-31T00:47:27.855Z,28.32
2019-03-31T00:52:31.737Z,25.57
2019-03-31T00:57:35.245Z,22.95
2019-03-31T01:02:38.797Z,22.77
2019-03-31T01:07:45.464Z,24.82
2019-03-31T01:12:49.055Z,30.30
2019-03-31T01:17:53.006Z,30.08
2019-03-31T01:22:56.906Z,27.35
2019-03-31T01:28:00.394Z,36.23
2019-03-31T01:33:04.811Z,33.63
2019-03-31T01:38:08.296Z,29.82
2019-03-31T01:43:11.894Z,25.95
2019-03-31T01:48:15.509Z,24.80
2019-03-31T01:53:18.983Z,28.65
2019-03-31T01:58:22.937Z,41.90
2019-03-31T02:03:26.842Z,30.23
2019-03-31T02:08:30.426Z,29.12
2019-03-31T02:13:33.961Z,32.25
2019-03-31T02:18:37.503Z,27.58
2019-03-31T02:23:40.978Z,32.73
2019-03-31T02:28:44.521Z,29.55
2019-03-31T02:33:48.040Z,27.80
2019-03-31T02:38:51.663Z,31.70
2019-03-31T02:43:55.165Z,32.05
2019-03-31T02:48:58.737Z,26.77
2019-03-31T02:54:02.242Z,27.82
2019-03-31T02:59:06.442Z,23.57
2019-03-31T03:04:10.289Z,27.40
2019-03-31T03:09:15.424Z,24.00
2019-03-31T03:14:19.768Z,23.80
2019-03-31T03:19:23.322Z,26.48
2019-03-31T03:24:26.859Z,26.57
2019-03-31T03:29:30.347Z,25.05
2019-03-31T03:34:34.104Z,35.75
2019-03-31T03:39:37.889Z,26.97
2019-03-31T03:44:41.462Z,27.17
2019-03-31T03:49:44.944Z,30.37
2019-03-31T03:54:48.430Z,25.68
2019-03-31T03:59:51.980Z,28.62
2019-03-31T04:04:55.537Z,27.30
2019-03-31T04:09:59.007Z,25.75
2019-03-31T04:15:02.521Z,29.20
2019-03-31T04:20:06.133Z,26.25
2019-03-31T04:25:09.677Z,24.43
2019-03-31T04:30:13.144Z,27.87
2019-03-31T04:35:16.634Z,27.55
2019-03-31T04:40:20.195Z,27.67
2019-03-31T04:45:23.675Z,24.43
2019-03-31T04:50:27.162Z,30.12
2019-03-31T04:55:30.733Z,29.72
2019-03-31T05:00:34.200Z,23.47
2019-03-31T05:05:37.715Z,25.97
2019-03-31T05:10:41.238Z,32.30
2019-03-31T05:15:44.768Z,27.48
2019-03-31T05:20:48.235Z,24.37
2019-03-31T05:25:51.718Z,22.87
2019-03-31T05:30:55.447Z,33.83
2019-03-31T05:35:59.173Z,42.98
2019-03-31T05:41:02.754Z,40.23
2019-03-31T05:46:06.301Z,37.38
2019-03-31T05:51:09.858Z,37.48
2019-03-31T05:56:13.338Z,35.92
2019-03-31T06:01:16.805Z,33.98
2019-03-31T06:06:20.959Z,34.27
2019-03-31T06:11:24.546Z,49.85
2019-03-31T06:16:28.197Z,37.28
2019-03-31T06:21:31.814Z,33.48
2019-03-31T06:26:35.286Z,35.25
2019-03-31T06:31:38.785Z,39.00
2019-03-31T06:36:42.299Z,42.98
2019-03-31T06:41:45.937Z,32.65
2019-03-31T06:46:49.574Z,33.98
2019-03-31T06:51:53.128Z,32.42
2019-03-31T06:56:56.653Z,34.48
2019-03-31T07:02:03.110Z,46.60
2019-03-31T07:07:06.894Z,28.30
2019-03-31T07:12:10.621Z,27.67
2019-03-31T07:17:14.156Z,32.13
2019-03-31T07:22:17.619Z,32.75
2019-03-31T07:27:21.119Z,35.95
2019-03-31T07:32:24.652Z,30.85
2019-03-31T07:37:28.167Z,33.83
2019-03-31T07:42:31.750Z,35.92
2019-03-31T07:47:35.464Z,41.18
2019-03-31T07:52:38.954Z,43.85
2019-03-31T07:57:42.518Z,35.43
2019-03-31T08:02:46.082Z,36.00
2019-03-31T08:07:49.564Z,32.75
2019-03-31T08:12:53.120Z,49.65
2019-03-31T08:17:56.620Z,61.60
2019-03-31T08:23:00.106Z,50.35
2019-03-31T08:28:03.669Z,51.63
2019-03-31T08:33:07.139Z,43.73
2019-03-31T08:38:10.697Z,38.08
2019-03-31T08:43:14.265Z,39.63
2019-03-31T08:48:17.805Z,39.25
2019-03-31T08:53:21.507Z,39.35
2019-03-31T09:14:36.270Z,34.63
2019-03-31T09:19:39.800Z,34.03
2019-03-31T09:24:43.369Z,39.63
2019-03-31T09:29:46.945Z,35.05
2019-03-31T09:34:50.544Z,34.18
2019-03-31T09:39:54.060Z,36.73
2019-03-31T09:44:57.682Z,42.45
2019-03-31T09:50:01.159Z,42.83
2019-03-31T09:55:06.743Z,43.45
2019-03-31T10:00:13.317Z,40.73
2019-03-31T10:05:17.410Z,42.43
2019-03-31T10:10:29.655Z,49.05
2019-03-31T10:15:33.137Z,45.50
2019-03-31T10:20:36.617Z,40.85
2019-03-31T10:25:40.170Z,48.00
2019-03-31T10:30:43.720Z,48.85
2019-03-31T10:35:47.186Z,50.15
2019-03-31T10:40:50.781Z,39.15
2019-03-31T10:45:54.278Z,49.30
2019-03-31T10:50:57.780Z,47.25
2019-03-31T10:56:01.308Z,42.20
2019-03-31T11:01:05.150Z,43.38
2019-03-31T11:06:08.667Z,48.95
2019-03-31T11:11:12.209Z,38.55
2019-03-31T11:16:15.696Z,39.03
2019-03-31T11:21:20.866Z,38.33
2019-03-31T11:26:24.436Z,43.28
2019-03-31T11:31:27.935Z,41.48
2019-03-31T11:36:31.471Z,35.55
2019-03-31T11:41:34.960Z,35.78
2019-03-31T11:46:38.536Z,31.10
2019-03-31T11:51:42.026Z,28.10
2019-03-31T11:56:45.547Z,32.35
2019-03-31T12:01:49.134Z,32.13
2019-03-31T12:06:52.610Z,29.27
2019-03-31T12:11:56.079Z,29.37
2019-03-31T12:16:59.581Z,34.40
2019-03-31T12:22:03.200Z,29.15
2019-03-31T12:27:06.755Z,36.80
2019-03-31T12:32:10.228Z,33.25
2019-03-31T12:37:13.699Z,32.58
2019-03-31T12:42:17.162Z,32.55
2019-03-31T12:47:20.737Z,32.20
2019-03-31T12:52:24.232Z,31.60
2019-03-31T12:57:27.712Z,30.25
2019-03-31T13:02:31.269Z,34.48
2019-03-31T13:07:36.319Z,34.18
2019-03-31T13:12:40.171Z,35.10
2019-03-31T13:17:43.709Z,31.95
2019-03-31T13:22:47.287Z,33.95
2019-03-31T13:27:50.847Z,32.00
2019-03-31T13:32:54.340Z,50.67
2019-03-31T13:38:10.257Z,33.98
2019-03-31T13:43:03.114Z,28.98
2019-03-31T13:48:06.664Z,30.65
2019-03-31T13:53:10.149Z,25.27
2019-03-31T13:58:14.251Z,22.55
2019-03-31T14:03:18.945Z,21.60
2019-03-31T14:08:25.949Z,21.93
2019-03-31T14:13:27.629Z,23.73
2019-03-31T14:18:31.214Z,17.75
2019-03-31T14:23:34.800Z,21.42
2019-03-31T14:28:38.380Z,18.65
2019-03-31T14:33:41.901Z,17.48
2019-03-31T14:38:45.460Z,15.00
2019-03-31T14:43:48.962Z,15.38
2019-03-31T14:48:52.466Z,16.77
2019-03-31T14:53:55.922Z,12.30
2019-03-31T14:58:59.400Z,16.23
2019-03-31T15:04:02.955Z,13.05
2019-03-31T15:09:08.558Z,12.43
2019-03-31T15:14:12.060Z,11.90
2019-03-31T15:19:15.531Z,15.23
2019-03-31T15:24:19.080Z,11.22
2019-03-31T15:29:22.595Z,12.13
2019-03-31T15:34:26.139Z,12.35
2019-03-31T15:39:29.672Z,14.15
2019-03-31T15:44:33.156Z,9.85
2019-03-31T15:49:36.734Z,11.00
2019-03-31T15:54:40.330Z,11.28
2019-03-31T15:59:53.786Z,9.10
2019-03-31T16:04:57.296Z,10.30
2019-03-31T16:10:00.844Z,8.20
2019-03-31T16:15:07.125Z,7.85
2019-03-31T16:20:11.397Z,8.50
2019-03-31T16:25:22.646Z,8.83
2019-03-31T16:30:26.429Z,10.23
2019-03-31T16:35:29.905Z,8.33
2019-03-31T16:40:33.446Z,8.28
2019-03-31T16:45:37.010Z,8.95
2019-03-31T16:50:40.530Z,6.70
2019-03-31T16:55:44.002Z,7.33
2019-03-31T17:00:47.542Z,8.63
2019-03-31T17:05:51.077Z,7.70
2019-03-31T17:10:54.542Z,8.00
2019-03-31T17:15:58.064Z,7.85
2019-03-31T17:21:01.623Z,6.87
2019-03-31T17:26:05.100Z,7.28
2019-03-31T17:31:08.576Z,6.83
2019-03-31T17:36:12.649Z,7.03
2019-03-31T17:41:16.335Z,6.17
2019-03-31T17:46:19.839Z,6.05
2019-03-31T17:51:23.407Z,6.47
2019-03-31T17:56:26.947Z,6.28
2019-03-31T18:01:30.414Z,5.55
2019-03-31T18:06:33.949Z,5.90
2019-03-31T18:11:37.474Z,5.92
2019-03-31T18:16:40.979Z,5.78
2019-03-31T18:21:46.043Z,5.90
2019-03-31T18:26:49.519Z,6.90
2019-03-31T18:31:53.026Z,5.20
2019-03-31T18:36:56.567Z,6.53
2019-03-31T18:42:00.116Z,5.35
2019-03-31T18:47:03.682Z,5.17
2019-03-31T18:52:07.259Z,4.60
2019-03-31T18:57:21.374Z,5.05
2019-03-31T19:02:32.250Z,5.35
2019-03-31T19:07:37.373Z,5.95
2019-03-31T19:12:42.492Z,5.10
2019-03-31T19:18:03.619Z,5.22
2019-03-31T19:23:23.834Z,6.10
2019-03-31T19:28:28.994Z,4.58
2019-03-31T19:33:36.958Z,4.62
2019-03-31T19:38:58.524Z,4.72
2019-03-31T19:44:20.114Z,4.90
2019-03-31T19:49:31.090Z,6.05
2019-03-31T19:54:36.236Z,4.22
2019-03-31T19:59:53.206Z,4.45
2019-03-31T20:04:58.324Z,3.95
2019-03-31T20:10:09.442Z,4.40
2019-03-31T20:15:32.716Z,4.10
2019-03-31T20:20:41.008Z,4.67
2019-03-31T20:25:46.297Z,4.87
2019-03-31T20:31:06.391Z,4.87
2019-03-31T20:36:11.530Z,5.92
2019-03-31T20:41:19.563Z,4.17
2019-03-31T20:46:23.531Z,4.50
2019-03-31T20:51:27.027Z,4.72
2019-03-31T20:56:30.499Z,4.40
2019-03-31T21:01:33.984Z,4.05
2019-03-31T21:06:37.470Z,4.55
2019-03-31T21:11:41.012Z,4.55
2019-03-31T21:16:44.494Z,4.42
2019-03-31T21:21:48.017Z,4.15
2019-03-31T21:26:51.571Z,3.80
2019-03-31T21:31:55.038Z,3.95
2019-03-31T21:36:58.506Z,3.72
2019-03-31T21:42:01.985Z,3.90
2019-03-31T21:47:05.462Z,3.92
2019-03-31T21:52:09.089Z,3.85
2019-03-31T21:57:12.582Z,3.67
2019-03-31T22:02:16.139Z,3.65
2019-03-31T22:07:19.675Z,3.95
2019-03-31T22:12:23.222Z,3.75
2019-03-31T22:17:26.709Z,3.90
2019-03-31T22:22:30.280Z,3.52
2019-03-31T22:27:33.741Z,3.15
2019-03-31T22:32:37.201Z,3.42
2019-03-31T22:37:41.149Z,3.75
2019-03-31T22:42:44.649Z,4.03
2019-03-31T22:47:48.214Z,4.22
2019-03-31T22:52:51.678Z,3.10
2019-03-31T22:57:55.255Z,3.95
2019-03-31T23:02:58.755Z,4.05
2019-03-31T23:08:02.222Z,3.08
2019-03-31T23:13:05.714Z,3.50
2019-03-31T23:18:09.430Z,2.92
2019-03-31T23:23:12.930Z,3.83
2019-03-31T23:28:16.472Z,3.65
2019-03-31T23:33:20.039Z,3.45
2019-03-31T23:38:23.513Z,3.67
2019-03-31T23:43:27.056Z,3.02
2019-03-31T23:48:30.589Z,5.55
2019-03-31T23:53:34.091Z,3.50
2019-03-31T23:58:37.674Z,2.92
